Latest Weather Observations for Williamtown

IDN60801

Issued at 4:02 pm EDT Saturday 17 November 2018 (issued every 10 minutes, with the page automatically refreshed every 10 minutes)

About weather observations | Map of weather stations | Latest weather observations for NSW | Other Formats
Station Details ID: 061078 Name: WILLIAMTOWN RAAF Lat: -32.79 Lon: 151.84 Height: 7.5 m
Data from the previous 72 hours. | See also: Recent months at Williamtown
Date/Time
EDT
Temp
°C
App
Temp
°C
Dew
Point
°C
Rel
Hum
%
Delta-T
°C
Wind Press
QNH
hPa
Press
MSL
hPa
Rain since
9am
mm
Dir  Spd
km/h
Gust
km/h
Spd
kts
Gust
kts
17/04:00pm 21.6 17.9 16.1 71 3.3 SSE 30 43 16 23 1018.3 1018.2 0.0
17/03:30pm 21.5 17.9 16.2 72 3.2 SSE 30 37 16 20 1018.3 1018.2 0.0
17/03:00pm 22.0 17.8 15.8 68 3.7 SSE 32 41 17 22 1018.4 1018.3 0.0
17/02:30pm 22.2 18.2 16.2 69 3.6 S 32 39 17 21 1018.6 1018.5 0.0
17/02:00pm 22.3 19.3 16.8 71 3.4 S 28 37 15 20 1018.7 1018.6 0.0
17/01:30pm 21.9 18.3 16.2 70 3.4 S 30 39 16 21 1018.8 1018.7 0.0
17/01:00pm 21.4 17.7 15.9 71 3.3 S 30 37 16 20 1018.9 1018.8 0.0
17/12:30pm 21.8 18.5 16.1 70 3.4 S 28 35 15 19 1019.0 1018.9 0.0
17/12:00pm 21.4 18.2 15.3 68 3.6 S 26 33 14 18 1019.1 1019.0 0.0
17/11:30am 21.4 18.0 14.8 66 3.9 S 26 35 14 19 1019.1 1019.0 0.0
17/11:00am 21.5 18.4 15.6 69 3.5 S 26 35 14 19 1019.2 1019.1 0.0
17/10:30am 20.5 17.4 15.5 73 3.0 S 26 33 14 18 1019.0 1018.9 0.0
17/10:00am 20.8 18.7 16.2 75 2.8 SSE 22 30 12 16 1018.9 1018.8 0.0
17/09:30am 19.7 17.4 15.8 78 2.3 SSE 22 30 12 16 1018.9 1018.8 0.0
17/09:00am 19.8 17.7 16.1 79 2.2 SSE 22 28 12 15 1018.6 1018.5 0.2
17/08:30am 19.3 17.6 16.2 82 1.9 SSE 20 28 11 15 1018.3 1018.2 0.2
17/08:14am 19.1 18.8 16.5 85 1.6 SSE 13 19 7 10 1018.2 1018.1 0.2
17/08:00am 18.7 19.4 17.0 90 1.0 SSW 9 13 5 7 1018.0 1017.9 0.2
17/07:57am 18.7 19.4 17.0 90 1.0 SW 9 13 5 7 1017.9 1017.8 0.2
17/07:31am 18.0 20.3 16.7 92 0.8 CALM 0 0 0 0 1017.7 1017.6 0.2
17/07:30am 17.9 20.1 16.6 92 0.8 CALM 0 0 0 0 1017.7 1017.6 0.2
17/07:04am 17.3 18.2 16.2 93 0.7 SW 6 7 3 4 1017.3 1017.2 0.2
17/07:00am 17.1 18.0 16.0 93 0.6 SW 6 9 3 5 1017.3 1017.2 0.2
17/06:40am 16.9 17.5 15.9 94 0.6 W 7 9 4 5 1017.2 1017.1 0.2
17/06:30am 16.7 17.3 15.7 94 0.6 WNW 7 11 4 6 1017.1 1017.0 0.2
17/06:04am 16.5 16.3 15.7 95 0.5 NW 11 15 6 8 1017.0 1016.9 0.2
17/06:00am 16.6 16.8 15.8 95 0.5 W 9 13 5 7 1016.9 1016.8 0.2
17/05:30am 16.1 16.8 15.5 96 0.3 W 6 9 3 5 1016.5 1016.4 0.2
17/05:00am 15.6 17.2 15.0 96 0.3 CALM 0 0 0 0 1016.4 1016.3 0.2
17/04:30am 15.2 16.7 14.6 96 0.3 CALM 0 0 0 0 1016.2 1016.1 0.2
17/04:00am 15.2 16.7 14.6 96 0.3 CALM 0 0 0 0 1016.2 1016.1 0.2
17/03:30am 15.4 16.5 14.6 95 0.5 NNW 2 6 1 3 1016.3 1016.2 0.2
17/03:00am 15.4 16.9 14.6 95 0.5 CALM 0 2 0 1 1016.6 1016.5 0.2
17/02:30am 15.5 15.8 14.5 94 0.6 WNW 6 7 3 4 1016.9 1016.8 0.2
17/02:00am 16.1 16.7 15.3 95 0.5 WNW 6 7 3 4 1017.3 1017.2 0.2
17/01:30am 16.1 16.1 15.3 95 0.5 WNW 9 11 5 6 1017.7 1017.6 0.2
17/01:00am 15.8 16.1 15.0 95 0.5 WSW 7 9 4 5 1018.0 1017.9 0.2
17/12:30am 15.6 15.9 14.6 94 0.6 WSW 6 7 3 4 1018.2 1018.1 0.2
17/12:00am 15.7 15.9 14.6 93 0.6 WSW 7 9 4 5 1018.5 1018.4 0.2
 
Date/Time
EDT
Temp
°C
App
Temp
°C
Dew
Point
°C
Rel
Hum
%
Delta-T
°C
Wind Press
QNH
hPa
Press
MSL
hPa
Rain since
9am
mm
Dir  Spd
km/h
Gust
km/h
Spd
kts
Gust
kts
16/11:30pm 15.5 15.8 14.4 93 0.6 WSW 6 7 3 4 1018.7 1018.6 0.2
16/11:00pm 15.3 16.6 14.0 92 0.7 CALM 0 0 0 0 1018.7 1018.6 0.2
16/10:30pm 15.4 16.5 13.6 89 1.0 CALM 0 0 0 0 1018.8 1018.7 0.2
16/10:00pm 16.0 17.3 14.2 89 1.0 CALM 0 0 0 0 1018.6 1018.5 0.2
16/09:30pm 16.6 18.1 14.6 88 1.1 CALM 0 2 0 1 1018.7 1018.6 0.2
16/09:00pm 16.7 18.0 14.2 85 1.4 CALM 0 0 0 0 1018.5 1018.4 0.2
16/08:30pm 17.5 17.2 14.4 82 1.8 SSE 9 11 5 6 1018.4 1018.3 0.2
16/08:00pm 17.8 17.5 14.5 81 1.9 SE 9 11 5 6 1018.2 1018.1 0.2
16/07:30pm 19.1 18.1 14.6 75 2.6 SSE 13 15 7 8 1018.2 1018.1 0.2
16/07:00pm 19.5 18.7 15.2 76 2.5 S 13 17 7 9 1018.3 1018.2 0.2
16/06:30pm 19.6 18.5 15.3 76 2.5 S 15 19 8 10 1018.1 1018.0 0.2
16/06:00pm 19.7 17.4 14.7 73 2.9 SSE 20 26 11 14 1017.9 1017.8 0.2
16/05:30pm 19.7 17.7 15.4 76 2.5 S 20 28 11 15 1017.9 1017.8 0.2
16/05:00pm 20.0 18.3 15.8 77 2.5 S 19 26 10 14 1017.9 1017.8 0.2
16/04:30pm 20.3 18.5 15.5 74 2.8 S 19 28 10 15 1017.8 1017.7 0.2
16/04:00pm 20.6 18.8 15.4 72 3.1 SSE 19 28 10 15 1017.8 1017.7 0.2
16/03:30pm 21.2 19.0 14.8 67 3.8 S 20 30 11 16 1018.0 1017.9 0.2
16/03:00pm 20.7 18.2 13.6 64 4.1 S 19 26 10 14 1018.2 1018.1 0.2
16/02:30pm 21.1 18.8 14.7 67 3.8 S 20 30 11 16 1018.6 1018.5 0.2
16/02:00pm 20.8 18.3 15.1 70 3.4 S 22 30 12 16 1018.9 1018.8 0.2
16/01:30pm 20.8 17.8 13.7 64 4.1 S 22 30 12 16 1019.2 1019.1 0.2
16/01:00pm 20.9 18.3 13.8 64 4.1 SSE 20 28 11 15 1019.4 1019.3 0.2
16/12:30pm 20.2 16.9 14.1 68 3.5 SSE 24 32 13 17 1019.7 1019.6 0.2
16/12:00pm 19.6 17.8 15.9 79 2.2 S 20 26 11 14 1020.1 1020.0 0.2
16/11:30am 18.7 16.7 15.4 81 1.9 S 20 26 11 14 1020.3 1020.2 0.2
16/11:09am 18.3 16.8 15.4 83 1.7 SSE 17 24 9 13 1020.4 1020.3 0.2
16/11:00am 18.2 16.8 15.6 85 1.5 SSE 17 22 9 12 1020.5 1020.4 0.2
16/10:30am 18.1 16.4 15.7 86 1.4 S 19 26 10 14 1020.6 1020.5 0.2
16/10:00am 17.0 15.7 15.9 93 0.6 S 17 24 9 13 1020.7 1020.6 0.2
16/09:30am 17.0 15.7 15.9 93 0.6 SSW 17 26 9 14 1020.7 1020.6 0.2
16/09:05am 17.0 15.3 15.7 92 0.8 S 19 30 10 16 1020.7 1020.6 0.0
16/09:00am 17.1 15.1 15.6 91 0.9 S 20 30 11 16 1020.7 1020.6 2.4
16/08:30am 16.9 16.5 16.1 95 0.5 SSW 13 17 7 9 1020.9 1020.8 2.4
16/08:00am 16.4 15.5 15.8 96 0.4 S 15 20 8 11 1020.8 1020.7 2.4
16/07:30am 16.4 14.9 15.4 94 0.6 SSW 17 24 9 13 1020.6 1020.5 2.2
16/07:00am 16.6 15.0 15.0 90 0.9 S 17 28 9 15 1020.4 1020.3 1.8
16/06:50am 16.9 15.3 14.9 88 1.2 S 17 30 9 16 1020.4 1020.3 1.6
16/06:30am 17.3 14.9 14.4 83 1.7 S 20 32 11 17 1020.3 1020.2 1.6
16/06:00am 17.6 15.2 14.5 82 1.8 S 20 28 11 15 1020.2 1020.1 1.6
16/05:30am 17.6 15.5 14.7 83 1.7 S 19 24 10 13 1019.7 1019.6 1.6
16/05:00am 17.9 15.5 14.4 80 2.0 S 20 28 11 15 1019.6 1019.5 1.6
16/04:30am 17.4 14.8 14.9 85 1.4 S 22 30 12 16 1019.6 1019.5 1.4
16/04:00am 17.0 14.9 15.2 89 1.0 S 20 28 11 15 1019.5 1019.4 1.4
16/03:53am 16.8 14.9 15.3 91 0.9 S 19 30 10 16 1019.6 1019.5 1.4
16/03:51am 16.8 14.9 15.3 91 0.9 S 19 30 10 16 1019.7 1019.6 1.4
16/03:42am 16.7 14.0 15.6 93 0.6 S 24 35 13 19 1019.8 1019.7 1.4
16/03:35am 16.7 13.5 15.4 92 0.8 S 26 35 14 19 1019.7 1019.6 1.4
16/03:30am 16.8 14.0 15.3 91 0.9 S 24 35 13 19 1019.8 1019.7 1.4
16/03:16am 16.9 14.8 15.1 89 1.0 S 20 32 11 17 1019.9 1019.8 1.4
16/03:00am 16.8 13.2 15.3 91 0.9 S 28 37 15 20 1019.9 1019.8 1.2
16/02:44am 17.1 13.0 14.9 87 1.3 SSE 30 41 16 22 1020.0 1019.9 1.2
16/02:30am 18.0 16.2 15.4 85 1.5 S 19 26 10 14 1019.9 1019.8 1.2
16/02:13am 17.8 15.8 15.6 87 1.3 S 20 30 11 16 1020.1 1020.0 1.2
16/02:00am 17.8 15.8 15.6 87 1.3 S 20 35 11 19 1020.2 1020.1 1.2
16/01:48am 17.7 15.9 15.9 89 1.1 S 20 28 11 15 1020.2 1020.1 1.2
16/01:33am 17.6 15.3 15.6 88 1.2 S 22 30 12 16 1020.4 1020.3 1.2
16/01:30am 17.6 15.3 15.6 88 1.2 S 22 30 12 16 1020.4 1020.3 1.2
16/01:22am 17.5 15.2 15.7 89 1.1 S 22 32 12 17 1020.5 1020.4 1.2
16/01:19am 17.5 15.2 15.8 90 1.0 S 22 32 12 17 1020.5 1020.4 1.2
16/01:00am 17.3 14.7 16.0 92 0.8 S 24 32 13 17 1020.6 1020.5 1.2
16/12:30am 17.5 15.5 16.5 94 0.6 S 22 32 12 17 1020.9 1020.8 1.2
16/12:00am 17.5 15.2 16.7 95 0.5 S 24 35 13 19 1021.1 1021.0 1.2
 
Date/Time
EDT
Temp
°C
App
Temp
°C
Dew
Point
°C
Rel
Hum
%
Delta-T
°C
Wind Press
QNH
hPa
Press
MSL
hPa
Rain since
9am
mm
Dir  Spd
km/h
Gust
km/h
Spd
kts
Gust
kts
15/11:31pm 17.8 15.7 17.2 96 0.4 S 24 32 13 17 1021.2 1021.1 1.0
15/11:30pm 17.7 15.5 16.9 95 0.5 S 24 32 13 17 1021.2 1021.1 1.0
15/11:16pm 17.9 15.8 17.1 95 0.5 S 24 32 13 17 1021.2 1021.1 1.0
15/11:09pm 18.0 16.2 17.0 94 0.6 S 22 30 12 16 1021.4 1021.3 1.0
15/11:00pm 18.2 16.4 16.9 92 0.8 S 22 32 12 17 1021.4 1021.3 0.8
15/10:52pm 18.5 16.2 16.7 89 1.1 S 24 32 13 17 1021.5 1021.4 0.8
15/10:30pm 18.7 17.3 16.9 89 1.1 SSE 20 26 11 14 1021.4 1021.3 0.8
15/10:00pm 18.8 17.4 17.1 90 1.0 SSE 20 28 11 15 1021.3 1021.2 0.8
15/09:30pm 19.0 17.4 17.5 91 0.9 SE 22 28 12 15 1021.1 1021.0 0.8
15/09:00pm 19.0 17.5 17.7 92 0.8 SSE 22 30 12 16 1020.9 1020.8 0.8
15/08:30pm 18.9 16.1 17.4 91 0.9 SE 28 35 15 19 1020.4 1020.3 0.6
15/08:00pm 19.4 17.9 17.7 90 1.0 SE 22 28 12 15 1020.3 1020.2 0.0
15/07:30pm 19.5 17.5 17.5 88 1.2 SSE 24 35 13 19 1020.2 1020.1 0.0
15/07:00pm 19.7 17.1 17.8 89 1.2 SSE 28 35 15 19 1019.8 1019.7 0.0
15/06:30pm 19.6 17.0 17.7 89 1.2 SSE 28 37 15 20 1019.1 1019.0 0.0
15/06:00pm 20.7 17.4 17.1 80 2.2 SSE 30 37 16 20 1018.5 1018.4 0.0
15/05:30pm 20.9 17.3 17.3 80 2.2 SSE 32 39 17 21 1017.8 1017.7 0.0
15/05:00pm 21.6 17.6 17.6 78 2.5 SSE 35 52 19 28 1017.8 1017.7 0.0
15/04:30pm 21.5 18.1 17.7 79 2.3 SSE 32 41 17 22 1017.6 1017.5 0.0
15/04:29pm 21.6 18.2 17.6 78 2.5 SSE 32 41 17 22 1017.6 1017.5 0.0
15/04:00pm 22.6 19.5 17.5 73 3.1 SSE 30 44 16 24 1017.4 1017.3 0.0
15/03:30pm 22.2 18.5 16.9 72 3.2 S 32 41 17 22 1017.1 1017.0 0.0
15/03:00pm 23.0 20.4 17.9 73 3.2 SSE 28 39 15 21 1017.5 1017.4 0.0
15/02:30pm 23.6 20.8 18.3 72 3.3 SSE 30 39 16 21 1017.8 1017.7 0.0
15/02:00pm 23.3 20.9 18.2 73 3.2 SSE 28 35 15 19 1018.1 1018.0 0.0
15/01:30pm 22.5 20.0 18.1 76 2.7 SSE 28 35 15 19 1018.0 1017.9 0.0
15/01:00pm 22.4 19.6 17.3 73 3.1 SSE 28 37 15 20 1018.0 1017.9 0.0
15/12:30pm 22.1 19.0 17.5 75 2.8 S 30 39 16 21 1018.3 1018.2 0.0
15/12:00pm 22.7 19.6 17.4 72 3.3 S 30 37 16 20 1018.3 1018.2 0.0
15/11:30am 22.2 18.6 17.1 73 3.1 SSW 32 39 17 21 1018.6 1018.5 0.0
15/11:00am 22.2 18.8 17.6 75 2.8 S 32 41 17 22 1018.5 1018.4 0.0
15/10:30am 22.6 19.1 17.5 73 3.2 S 32 39 17 21 1018.3 1018.2 0.0
15/10:00am 23.2 20.3 17.9 72 3.3 S 30 35 16 19 1017.8 1017.7 0.0
15/09:30am 26.4 24.9 16.3 53 6.2 SW 19 28 10 15 1017.3 1017.2 0.0
15/09:00am 25.0 25.1 16.4 59 5.3 W 11 17 6 9 1017.0 1016.9 0.0
15/08:30am 23.7 22.7 15.7 61 4.8 WNW 15 20 8 11 1016.8 1016.7 0.0
15/08:00am 22.4 22.2 16.7 70 3.5 NW 13 19 7 10 1016.5 1016.4 0.0
15/07:30am 21.1 21.5 17.3 79 2.3 NNW 11 15 6 8 1016.2 1016.1 0.0
15/07:00am 19.8 20.7 17.6 87 1.3 NW 9 13 5 7 1015.9 1015.8 0.0
15/06:30am 18.5 20.5 17.0 91 0.9 NNW 2 7 1 4 1015.6 1015.5 0.0
15/06:00am 18.4 19.5 17.1 92 0.8 NW 7 9 4 5 1015.2 1015.1 0.0
15/05:30am 18.3 19.0 17.0 92 0.8 NW 9 11 5 6 1014.8 1014.7 0.0
15/05:00am 18.1 18.8 17.0 93 0.7 NNW 9 11 5 6 1014.6 1014.5 0.0
15/04:30am 17.6 19.0 16.5 93 0.7 WNW 4 9 2 5 1014.5 1014.4 0.0
15/04:00am 17.1 18.9 15.6 91 0.9 CALM 0 0 0 0 1014.4 1014.3 0.0
15/03:30am 17.4 18.1 15.6 89 1.1 NW 6 7 3 4 1014.3 1014.2 0.0
15/03:00am 18.1 18.7 15.9 87 1.3 N 7 9 4 5 1014.4 1014.3 0.0
15/02:30am 19.0 19.6 16.8 87 1.3 N 9 11 5 6 1014.6 1014.5 0.0
15/02:00am 19.1 20.2 17.1 88 1.2 NNW 7 9 4 5 1014.9 1014.8 0.0
15/01:30am 19.4 20.2 17.2 87 1.3 N 9 11 5 6 1015.2 1015.1 0.0
15/01:00am 20.1 20.9 17.3 84 1.7 N 9 11 5 6 1015.4 1015.3 0.0
15/12:30am 20.6 21.1 17.4 82 2.0 N 11 13 6 7 1015.6 1015.5 0.0
15/12:00am 21.2 22.0 17.4 79 2.3 N 9 11 5 6 1015.9 1015.8 0.0
 
Date/Time
EDT
Temp
°C
App
Temp
°C
Dew
Point
°C
Rel
Hum
%
Delta-T
°C
Wind Press
QNH
hPa
Press
MSL
hPa
Rain since
9am
mm
Dir  Spd
km/h
Gust
km/h
Spd
kts
Gust
kts
14/11:30pm 21.5 22.4 17.5 78 2.5 NNE 9 9 5 5 1016.1 1016.0 0.0
14/11:00pm 21.7 22.3 17.7 78 2.5 NNE 11 13 6 7 1016.1 1016.0 0.0
14/10:30pm 21.7 22.3 17.7 78 2.5 N 11 13 6 7 1016.1 1016.0 0.0
14/10:00pm 21.9 22.4 17.5 76 2.7 NNE 11 13 6 7 1016.0 1015.9 0.0
14/09:30pm 22.0 22.5 17.4 75 2.8 NNE 11 15 6 8 1016.0 1015.9 0.0
14/09:00pm 22.3 22.2 17.0 72 3.2 NNE 13 17 7 9 1016.0 1015.9 0.0
14/08:30pm 22.4 22.9 17.5 74 3.0 NNE 11 15 6 8 1015.8 1015.7 0.0
14/08:00pm 22.6 23.7 17.9 75 2.9 NNE 9 13 5 7 1015.8 1015.7 0.0
14/07:30pm 23.0 23.5 18.3 75 2.9 NNE 13 17 7 9 1015.5 1015.4 0.0
14/07:00pm 23.4 24.3 18.3 73 3.2 ENE 11 15 6 8 1015.0 1014.9 0.0
14/06:30pm 23.8 25.1 18.4 72 3.4 NE 9 13 5 7 1015.0 1014.9 0.0
14/06:00pm 24.0 24.7 18.0 69 3.8 NE 11 13 6 7 1015.0 1014.9 0.0
14/05:30pm 24.3 24.5 16.8 63 4.6 NE 11 15 6 8 1014.9 1014.8 0.0
14/05:00pm 24.2 24.5 15.9 59 5.0 NNE 9 13 5 7 1014.8 1014.7 0.0
14/04:30pm 24.3 24.2 16.0 60 5.0 NE 11 15 6 8 1014.8 1014.7 0.0

Other Formats:

Comma delimited format used in spreadsheet applications
http://www.bom.gov.au/fwo/IDN60801/IDN60801.94776.axf

JavaScript Object Notation format (JSON) in row-major order
http://www.bom.gov.au/fwo/IDN60801/IDN60801.94776.json